sensor_id;sensor_type;location;lat;lon;timestamp;P1;durP1;ratioP1;P2;durP2;ratioP2
38023;SDS011;23834;48.080;11.682;2023-04-29T00:00:29;0.97;;;0.70;;
38023;SDS011;23834;48.080;11.682;2023-04-29T00:02:54;0.80;;;0.80;;
38023;SDS011;23834;48.080;11.682;2023-04-29T00:05:20;0.60;;;0.50;;
38023;SDS011;23834;48.080;11.682;2023-04-29T00:07:45;0.73;;;0.73;;
38023;SDS011;23834;48.080;11.682;2023-04-29T00:10:10;0.73;;;0.73;;
38023;SDS011;23834;48.080;11.682;2023-04-29T00:12:38;0.67;;;0.67;;
38023;SDS011;23834;48.080;11.682;2023-04-29T00:15:04;0.70;;;0.50;;
38023;SDS011;23834;48.080;11.682;2023-04-29T00:17:30;0.60;;;0.60;;
38023;SDS011;23834;48.080;11.682;2023-04-29T00:19:55;0.80;;;0.80;;
38023;SDS011;23834;48.080;11.682;2023-04-29T00:22:20;0.60;;;0.60;;
38023;SDS011;23834;48.080;11.682;2023-04-29T00:24:46;0.70;;;0.60;;
38023;SDS011;23834;48.080;11.682;2023-04-29T00:27:11;0.60;;;0.60;;
38023;SDS011;23834;48.080;11.682;2023-04-29T00:29:37;0.77;;;0.70;;
38023;SDS011;23834;48.080;11.682;2023-04-29T00:32:02;1.93;;;0.67;;
38023;SDS011;23834;48.080;11.682;2023-04-29T00:34:27;0.40;;;0.40;;
38023;SDS011;23834;48.080;11.682;2023-04-29T00:36:53;0.67;;;0.67;;
38023;SDS011;23834;48.080;11.682;2023-04-29T00:39:18;0.70;;;0.70;;
38023;SDS011;23834;48.080;11.682;2023-04-29T00:41:43;0.70;;;0.67;;
38023;SDS011;23834;48.080;11.682;2023-04-29T00:44:08;0.60;;;0.60;;
38023;SDS011;23834;48.080;11.682;2023-04-29T00:46:34;0.70;;;0.60;;
38023;SDS011;23834;48.080;11.682;2023-04-29T00:48:59;0.50;;;0.50;;
38023;SDS011;23834;48.080;11.682;2023-04-29T00:51:25;0.70;;;0.60;;
38023;SDS011;23834;48.080;11.682;2023-04-29T00:53:50;0.57;;;0.57;;
38023;SDS011;23834;48.080;11.682;2023-04-29T00:56:15;0.60;;;0.60;;
38023;SDS011;23834;48.080;11.682;2023-04-29T00:58:41;0.80;;;0.53;;
38023;SDS011;23834;48.080;11.682;2023-04-29T01:01:13;1.00;;;0.80;;
38023;SDS011;23834;48.080;11.682;2023-04-29T01:03:38;0.60;;;0.60;;
38023;SDS011;23834;48.080;11.682;2023-04-29T01:06:25;0.70;;;0.67;;
38023;SDS011;23834;48.080;11.682;2023-04-29T01:11:33;0.50;;;0.50;;
38023;SDS011;23834;48.080;11.682;2023-04-29T01:13:59;0.60;;;0.60;;
38023;SDS011;23834;48.080;11.682;2023-04-29T01:18:53;0.77;;;0.70;;
38023;SDS011;23834;48.080;11.682;2023-04-29T01:21:19;0.60;;;0.57;;
38023;SDS011;23834;48.080;11.682;2023-04-29T01:23:44;0.80;;;0.50;;
38023;SDS011;23834;48.080;11.682;2023-04-29T01:26:09;0.50;;;0.50;;
38023;SDS011;23834;48.080;11.682;2023-04-29T01:31:07;0.70;;;0.50;;
38023;SDS011;23834;48.080;11.682;2023-04-29T01:41:10;0.63;;;0.50;;
38023;SDS011;23834;48.080;11.682;2023-04-29T01:43:37;0.87;;;0.53;;
38023;SDS011;23834;48.080;11.682;2023-04-29T01:46:03;0.90;;;0.50;;
38023;SDS011;23834;48.080;11.682;2023-04-29T01:48:29;0.80;;;0.70;;
38023;SDS011;23834;48.080;11.682;2023-04-29T01:50:55;1.80;;;0.60;;
38023;SDS011;23834;48.080;11.682;2023-04-29T01:53:20;0.67;;;0.60;;
38023;SDS011;23834;48.080;11.682;2023-04-29T01:55:45;0.60;;;0.50;;
38023;SDS011;23834;48.080;11.682;2023-04-29T01:58:11;0.90;;;0.47;;
38023;SDS011;23834;48.080;11.682;2023-04-29T02:00:36;0.60;;;0.53;;
38023;SDS011;23834;48.080;11.682;2023-04-29T02:03:02;1.07;;;0.60;;
38023;SDS011;23834;48.080;11.682;2023-04-29T02:05:27;0.50;;;0.40;;
38023;SDS011;23834;48.080;11.682;2023-04-29T02:07:56;0.60;;;0.50;;
38023;SDS011;23834;48.080;11.682;2023-04-29T02:10:21;0.60;;;0.60;;
38023;SDS011;23834;48.080;11.682;2023-04-29T02:12:46;0.70;;;0.70;;
38023;SDS011;23834;48.080;11.682;2023-04-29T02:15:11;0.60;;;0.57;;
38023;SDS011;23834;48.080;11.682;2023-04-29T02:17:37;0.73;;;0.40;;
38023;SDS011;23834;48.080;11.682;2023-04-29T02:20:02;0.60;;;0.60;;
38023;SDS011;23834;48.080;11.682;2023-04-29T02:22:27;0.70;;;0.70;;
38023;SDS011;23834;48.080;11.682;2023-04-29T02:24:53;0.77;;;0.53;;
38023;SDS011;23834;48.080;11.682;2023-04-29T02:27:18;0.70;;;0.70;;
38023;SDS011;23834;48.080;11.682;2023-04-29T02:29:43;0.50;;;0.40;;
38023;SDS011;23834;48.080;11.682;2023-04-29T02:32:08;0.50;;;0.50;;
38023;SDS011;23834;48.080;11.682;2023-04-29T02:34:33;0.60;;;0.50;;
38023;SDS011;23834;48.080;11.682;2023-04-29T02:36:59;0.70;;;0.70;;
38023;SDS011;23834;48.080;11.682;2023-04-29T02:39:24;0.60;;;0.50;;
38023;SDS011;23834;48.080;11.682;2023-04-29T02:41:49;0.87;;;0.70;;
38023;SDS011;23834;48.080;11.682;2023-04-29T02:44:17;0.70;;;0.50;;
38023;SDS011;23834;48.080;11.682;2023-04-29T02:46:42;0.60;;;0.60;;
38023;SDS011;23834;48.080;11.682;2023-04-29T02:49:10;0.60;;;0.60;;
38023;SDS011;23834;48.080;11.682;2023-04-29T02:51:36;0.77;;;0.70;;
38023;SDS011;23834;48.080;11.682;2023-04-29T02:54:01;0.50;;;0.40;;
38023;SDS011;23834;48.080;11.682;2023-04-29T02:56:26;0.63;;;0.60;;
38023;SDS011;23834;48.080;11.682;2023-04-29T02:58:51;1.83;;;0.57;;
38023;SDS011;23834;48.080;11.682;2023-04-29T03:01:16;0.70;;;0.70;;
38023;SDS011;23834;48.080;11.682;2023-04-29T03:03:42;0.70;;;0.63;;
38023;SDS011;23834;48.080;11.682;2023-04-29T03:06:07;0.80;;;0.60;;
38023;SDS011;23834;48.080;11.682;2023-04-29T03:08:32;0.50;;;0.50;;
38023;SDS011;23834;48.080;11.682;2023-04-29T03:10:57;0.70;;;0.70;;
38023;SDS011;23834;48.080;11.682;2023-04-29T03:13:23;0.77;;;0.50;;
38023;SDS011;23834;48.080;11.682;2023-04-29T03:15:48;0.50;;;0.50;;
38023;SDS011;23834;48.080;11.682;2023-04-29T03:18:13;0.60;;;0.60;;
38023;SDS011;23834;48.080;11.682;2023-04-29T03:20:38;0.60;;;0.60;;
38023;SDS011;23834;48.080;11.682;2023-04-29T03:23:03;0.60;;;0.47;;
38023;SDS011;23834;48.080;11.682;2023-04-29T03:25:29;0.50;;;0.50;;
38023;SDS011;23834;48.080;11.682;2023-04-29T03:27:54;0.60;;;0.60;;
38023;SDS011;23834;48.080;11.682;2023-04-29T03:30:20;0.50;;;0.50;;
38023;SDS011;23834;48.080;11.682;2023-04-29T03:32:45;0.60;;;0.60;;
38023;SDS011;23834;48.080;11.682;2023-04-29T03:35:10;0.67;;;0.53;;
38023;SDS011;23834;48.080;11.682;2023-04-29T03:37:36;0.70;;;0.70;;
38023;SDS011;23834;48.080;11.682;2023-04-29T03:40:01;0.80;;;0.60;;
38023;SDS011;23834;48.080;11.682;2023-04-29T03:42:26;0.50;;;0.40;;
38023;SDS011;23834;48.080;11.682;2023-04-29T03:44:51;0.83;;;0.80;;
38023;SDS011;23834;48.080;11.682;2023-04-29T03:47:16;0.60;;;0.60;;
38023;SDS011;23834;48.080;11.682;2023-04-29T03:49:42;0.60;;;0.60;;
38023;SDS011;23834;48.080;11.682;2023-04-29T03:52:07;0.50;;;0.50;;
38023;SDS011;23834;48.080;11.682;2023-04-29T03:54:33;0.53;;;0.53;;
38023;SDS011;23834;48.080;11.682;2023-04-29T03:56:58;0.73;;;0.67;;
38023;SDS011;23834;48.080;11.682;2023-04-29T03:59:23;1.00;;;0.80;;
38023;SDS011;23834;48.080;11.682;2023-04-29T04:01:48;0.60;;;0.60;;
38023;SDS011;23834;48.080;11.682;2023-04-29T04:04:13;0.60;;;0.60;;
38023;SDS011;23834;48.080;11.682;2023-04-29T04:06:39;0.60;;;0.50;;
38023;SDS011;23834;48.080;11.682;2023-04-29T04:09:04;0.60;;;0.60;;
38023;SDS011;23834;48.080;11.682;2023-04-29T04:11:29;0.60;;;0.60;;
38023;SDS011;23834;48.080;11.682;2023-04-29T04:13:55;0.50;;;0.50;;
38023;SDS011;23834;48.080;11.682;2023-04-29T04:16:20;0.57;;;0.50;;
38023;SDS011;23834;48.080;11.682;2023-04-29T04:18:45;0.50;;;0.50;;
38023;SDS011;23834;48.080;11.682;2023-04-29T04:21:11;0.70;;;0.50;;
38023;SDS011;23834;48.080;11.682;2023-04-29T04:23:37;0.60;;;0.50;;
38023;SDS011;23834;48.080;11.682;2023-04-29T04:26:05;0.50;;;0.50;;
38023;SDS011;23834;48.080;11.682;2023-04-29T04:28:30;0.50;;;0.50;;
38023;SDS011;23834;48.080;11.682;2023-04-29T04:30:55;0.70;;;0.63;;
38023;SDS011;23834;48.080;11.682;2023-04-29T04:33:20;0.97;;;0.60;;
38023;SDS011;23834;48.080;11.682;2023-04-29T04:35:46;0.60;;;0.60;;
38023;SDS011;23834;48.080;11.682;2023-04-29T04:38:11;0.83;;;0.57;;
38023;SDS011;23834;48.080;11.682;2023-04-29T04:40:39;0.50;;;0.50;;
38023;SDS011;23834;48.080;11.682;2023-04-29T04:43:05;0.60;;;0.50;;
38023;SDS011;23834;48.080;11.682;2023-04-29T04:45:30;0.63;;;0.50;;
38023;SDS011;23834;48.080;11.682;2023-04-29T04:47:55;0.70;;;0.70;;
38023;SDS011;23834;48.080;11.682;2023-04-29T04:50:21;0.50;;;0.50;;
38023;SDS011;23834;48.080;11.682;2023-04-29T04:52:46;0.60;;;0.60;;
38023;SDS011;23834;48.080;11.682;2023-04-29T04:55:11;0.63;;;0.50;;
38023;SDS011;23834;48.080;11.682;2023-04-29T04:57:36;0.60;;;0.60;;
38023;SDS011;23834;48.080;11.682;2023-04-29T05:00:01;0.50;;;0.50;;
38023;SDS011;23834;48.080;11.682;2023-04-29T05:02:28;0.60;;;0.60;;
38023;SDS011;23834;48.080;11.682;2023-04-29T05:04:53;0.50;;;0.50;;
38023;SDS011;23834;48.080;11.682;2023-04-29T05:07:18;0.60;;;0.50;;
38023;SDS011;23834;48.080;11.682;2023-04-29T05:09:43;0.60;;;0.53;;
38023;SDS011;23834;48.080;11.682;2023-04-29T05:12:09;1.00;;;0.63;;
38023;SDS011;23834;48.080;11.682;2023-04-29T05:14:34;0.50;;;0.50;;
38023;SDS011;23834;48.080;11.682;2023-04-29T05:16:59;0.50;;;0.47;;
38023;SDS011;23834;48.080;11.682;2023-04-29T05:19:25;0.70;;;0.60;;
38023;SDS011;23834;48.080;11.682;2023-04-29T05:21:50;0.60;;;0.50;;
38023;SDS011;23834;48.080;11.682;2023-04-29T05:24:16;0.70;;;0.60;;
38023;SDS011;23834;48.080;11.682;2023-04-29T05:26:41;0.60;;;0.60;;
38023;SDS011;23834;48.080;11.682;2023-04-29T05:29:08;0.60;;;0.50;;
38023;SDS011;23834;48.080;11.682;2023-04-29T05:31:33;0.70;;;0.50;;
38023;SDS011;23834;48.080;11.682;2023-04-29T05:33:58;0.70;;;0.63;;
38023;SDS011;23834;48.080;11.682;2023-04-29T05:36:23;0.57;;;0.57;;
38023;SDS011;23834;48.080;11.682;2023-04-29T05:38:49;0.57;;;0.57;;
38023;SDS011;23834;48.080;11.682;2023-04-29T05:41:14;0.60;;;0.60;;
38023;SDS011;23834;48.080;11.682;2023-04-29T05:43:39;0.50;;;0.50;;
38023;SDS011;23834;48.080;11.682;2023-04-29T05:46:04;0.67;;;0.50;;
38023;SDS011;23834;48.080;11.682;2023-04-29T05:48:30;0.60;;;0.60;;
38023;SDS011;23834;48.080;11.682;2023-04-29T05:50:55;0.60;;;0.60;;
38023;SDS011;23834;48.080;11.682;2023-04-29T05:53:20;0.60;;;0.60;;
38023;SDS011;23834;48.080;11.682;2023-04-29T05:55:45;0.60;;;0.60;;
38023;SDS011;23834;48.080;11.682;2023-04-29T05:58:11;0.63;;;0.60;;
38023;SDS011;23834;48.080;11.682;2023-04-29T06:00:37;0.60;;;0.60;;
38023;SDS011;23834;48.080;11.682;2023-04-29T06:03:03;0.63;;;0.53;;
38023;SDS011;23834;48.080;11.682;2023-04-29T06:05:28;0.50;;;0.50;;
38023;SDS011;23834;48.080;11.682;2023-04-29T06:07:53;0.60;;;0.60;;
38023;SDS011;23834;48.080;11.682;2023-04-29T06:10:19;0.60;;;0.60;;
38023;SDS011;23834;48.080;11.682;2023-04-29T06:12:44;0.50;;;0.50;;
38023;SDS011;23834;48.080;11.682;2023-04-29T06:15:10;0.60;;;0.60;;
38023;SDS011;23834;48.080;11.682;2023-04-29T06:17:36;0.83;;;0.63;;
38023;SDS011;23834;48.080;11.682;2023-04-29T06:20:01;0.80;;;0.50;;
38023;SDS011;23834;48.080;11.682;2023-04-29T06:22:27;0.40;;;0.40;;
38023;SDS011;23834;48.080;11.682;2023-04-29T06:24:52;0.70;;;0.70;;
38023;SDS011;23834;48.080;11.682;2023-04-29T06:27:17;0.60;;;0.60;;
38023;SDS011;23834;48.080;11.682;2023-04-29T06:29:42;0.57;;;0.57;;
38023;SDS011;23834;48.080;11.682;2023-04-29T06:32:07;0.60;;;0.50;;
38023;SDS011;23834;48.080;11.682;2023-04-29T06:34:33;0.70;;;0.70;;
38023;SDS011;23834;48.080;11.682;2023-04-29T06:36:58;0.40;;;0.40;;
38023;SDS011;23834;48.080;11.682;2023-04-29T06:39:23;0.70;;;0.67;;
38023;SDS011;23834;48.080;11.682;2023-04-29T06:41:48;0.50;;;0.50;;
38023;SDS011;23834;48.080;11.682;2023-04-29T06:44:14;0.57;;;0.57;;
38023;SDS011;23834;48.080;11.682;2023-04-29T06:46:40;0.50;;;0.47;;
38023;SDS011;23834;48.080;11.682;2023-04-29T06:49:05;0.77;;;0.60;;
38023;SDS011;23834;48.080;11.682;2023-04-29T06:51:31;0.70;;;0.53;;
38023;SDS011;23834;48.080;11.682;2023-04-29T06:53:56;0.60;;;0.57;;
38023;SDS011;23834;48.080;11.682;2023-04-29T06:56:21;0.60;;;0.60;;
38023;SDS011;23834;48.080;11.682;2023-04-29T06:58:47;0.60;;;0.57;;
38023;SDS011;23834;48.080;11.682;2023-04-29T07:01:12;0.60;;;0.50;;
38023;SDS011;23834;48.080;11.682;2023-04-29T07:03:38;0.60;;;0.60;;
38023;SDS011;23834;48.080;11.682;2023-04-29T07:06:03;0.80;;;0.60;;
38023;SDS011;23834;48.080;11.682;2023-04-29T07:08:28;0.60;;;0.60;;
38023;SDS011;23834;48.080;11.682;2023-04-29T07:10:54;0.70;;;0.63;;
38023;SDS011;23834;48.080;11.682;2023-04-29T07:13:20;0.63;;;0.63;;
38023;SDS011;23834;48.080;11.682;2023-04-29T07:15:45;0.57;;;0.57;;
38023;SDS011;23834;48.080;11.682;2023-04-29T07:18:10;0.70;;;0.70;;
38023;SDS011;23834;48.080;11.682;2023-04-29T07:20:36;0.67;;;0.50;;
38023;SDS011;23834;48.080;11.682;2023-04-29T07:23:01;0.60;;;0.53;;
38023;SDS011;23834;48.080;11.682;2023-04-29T07:25:26;0.60;;;0.60;;
38023;SDS011;23834;48.080;11.682;2023-04-29T07:27:53;0.70;;;0.60;;
38023;SDS011;23834;48.080;11.682;2023-04-29T07:30:18;0.70;;;0.70;;
38023;SDS011;23834;48.080;11.682;2023-04-29T07:32:43;0.50;;;0.50;;
38023;SDS011;23834;48.080;11.682;2023-04-29T07:35:09;0.60;;;0.60;;
38023;SDS011;23834;48.080;11.682;2023-04-29T07:37:34;0.73;;;0.40;;
38023;SDS011;23834;48.080;11.682;2023-04-29T07:39:59;0.40;;;0.40;;
38023;SDS011;23834;48.080;11.682;2023-04-29T07:42:25;0.50;;;0.50;;
38023;SDS011;23834;48.080;11.682;2023-04-29T07:44:50;0.50;;;0.50;;
38023;SDS011;23834;48.080;11.682;2023-04-29T07:47:15;0.60;;;0.60;;
38023;SDS011;23834;48.080;11.682;2023-04-29T07:49:40;0.80;;;0.60;;
38023;SDS011;23834;48.080;11.682;2023-04-29T07:52:06;0.60;;;0.60;;
38023;SDS011;23834;48.080;11.682;2023-04-29T07:54:33;0.70;;;0.50;;
38023;SDS011;23834;48.080;11.682;2023-04-29T07:56:58;0.70;;;0.50;;
38023;SDS011;23834;48.080;11.682;2023-04-29T07:59:25;0.60;;;0.60;;
38023;SDS011;23834;48.080;11.682;2023-04-29T08:01:50;0.83;;;0.60;;
38023;SDS011;23834;48.080;11.682;2023-04-29T08:04:16;0.60;;;0.60;;
38023;SDS011;23834;48.080;11.682;2023-04-29T08:06:42;0.60;;;0.60;;
38023;SDS011;23834;48.080;11.682;2023-04-29T08:09:07;0.90;;;0.60;;
38023;SDS011;23834;48.080;11.682;2023-04-29T08:11:32;0.80;;;0.63;;
38023;SDS011;23834;48.080;11.682;2023-04-29T08:13:57;0.50;;;0.50;;
38023;SDS011;23834;48.080;11.682;2023-04-29T08:16:25;0.70;;;0.60;;
38023;SDS011;23834;48.080;11.682;2023-04-29T08:18:51;0.70;;;0.67;;
38023;SDS011;23834;48.080;11.682;2023-04-29T08:21:16;0.70;;;0.60;;
38023;SDS011;23834;48.080;11.682;2023-04-29T08:23:41;0.70;;;0.60;;
38023;SDS011;23834;48.080;11.682;2023-04-29T08:26:06;0.90;;;0.63;;
38023;SDS011;23834;48.080;11.682;2023-04-29T08:28:33;0.60;;;0.60;;
38023;SDS011;23834;48.080;11.682;2023-04-29T08:30:58;0.50;;;0.50;;
38023;SDS011;23834;48.080;11.682;2023-04-29T08:33:24;0.70;;;0.70;;
38023;SDS011;23834;48.080;11.682;2023-04-29T08:35:56;0.60;;;0.60;;
38023;SDS011;23834;48.080;11.682;2023-04-29T08:38:21;0.60;;;0.60;;
38023;SDS011;23834;48.080;11.682;2023-04-29T08:40:47;0.70;;;0.70;;
38023;SDS011;23834;48.080;11.682;2023-04-29T08:43:12;0.80;;;0.80;;
38023;SDS011;23834;48.080;11.682;2023-04-29T08:45:38;0.50;;;0.50;;
38023;SDS011;23834;48.080;11.682;2023-04-29T08:48:03;0.90;;;0.70;;
38023;SDS011;23834;48.080;11.682;2023-04-29T08:50:29;0.60;;;0.60;;
38023;SDS011;23834;48.080;11.682;2023-04-29T08:52:54;0.80;;;0.80;;
38023;SDS011;23834;48.080;11.682;2023-04-29T08:55:20;0.80;;;0.50;;
38023;SDS011;23834;48.080;11.682;2023-04-29T08:57:45;1.10;;;0.90;;
38023;SDS011;23834;48.080;11.682;2023-04-29T09:00:14;0.60;;;0.57;;
38023;SDS011;23834;48.080;11.682;2023-04-29T09:02:40;0.80;;;0.80;;
38023;SDS011;23834;48.080;11.682;2023-04-29T09:05:10;0.70;;;0.70;;
38023;SDS011;23834;48.080;11.682;2023-04-29T09:07:36;0.73;;;0.60;;
38023;SDS011;23834;48.080;11.682;2023-04-29T09:10:05;0.60;;;0.60;;
38023;SDS011;23834;48.080;11.682;2023-04-29T09:12:31;0.83;;;0.83;;
38023;SDS011;23834;48.080;11.682;2023-04-29T09:14:56;0.60;;;0.60;;
38023;SDS011;23834;48.080;11.682;2023-04-29T09:18:04;0.70;;;0.70;;
38023;SDS011;23834;48.080;11.682;2023-04-29T09:22:48;0.73;;;0.60;;
38023;SDS011;23834;48.080;11.682;2023-04-29T09:25:14;0.80;;;0.70;;
38023;SDS011;23834;48.080;11.682;2023-04-29T09:27:39;0.60;;;0.60;;
38023;SDS011;23834;48.080;11.682;2023-04-29T09:30:04;0.70;;;0.70;;
38023;SDS011;23834;48.080;11.682;2023-04-29T09:32:30;0.77;;;0.77;;
38023;SDS011;23834;48.080;11.682;2023-04-29T09:34:55;0.67;;;0.67;;
38023;SDS011;23834;48.080;11.682;2023-04-29T09:37:24;0.70;;;0.60;;
38023;SDS011;23834;48.080;11.682;2023-04-29T09:39:50;0.60;;;0.60;;
38023;SDS011;23834;48.080;11.682;2023-04-29T09:42:15;0.70;;;0.70;;
38023;SDS011;23834;48.080;11.682;2023-04-29T09:44:41;0.70;;;0.70;;
38023;SDS011;23834;48.080;11.682;2023-04-29T09:47:07;0.70;;;0.70;;
38023;SDS011;23834;48.080;11.682;2023-04-29T09:52:01;0.60;;;0.60;;
38023;SDS011;23834;48.080;11.682;2023-04-29T09:54:29;0.70;;;0.60;;
38023;SDS011;23834;48.080;11.682;2023-04-29T09:56:55;0.87;;;0.87;;
38023;SDS011;23834;48.080;11.682;2023-04-29T09:59:21;0.93;;;0.87;;
38023;SDS011;23834;48.080;11.682;2023-04-29T10:01:47;0.70;;;0.70;;
38023;SDS011;23834;48.080;11.682;2023-04-29T10:04:13;0.70;;;0.70;;
38023;SDS011;23834;48.080;11.682;2023-04-29T10:06:39;0.80;;;0.80;;
38023;SDS011;23834;48.080;11.682;2023-04-29T10:09:05;0.73;;;0.70;;
38023;SDS011;23834;48.080;11.682;2023-04-29T10:11:31;0.87;;;0.87;;
38023;SDS011;23834;48.080;11.682;2023-04-29T10:13:56;0.83;;;0.80;;
38023;SDS011;23834;48.080;11.682;2023-04-29T10:16:27;0.70;;;0.70;;
38023;SDS011;23834;48.080;11.682;2023-04-29T10:18:54;0.97;;;0.87;;
38023;SDS011;23834;48.080;11.682;2023-04-29T10:21:20;0.80;;;0.80;;
38023;SDS011;23834;48.080;11.682;2023-04-29T10:23:48;1.10;;;0.67;;
38023;SDS011;23834;48.080;11.682;2023-04-29T10:26:14;0.77;;;0.70;;
38023;SDS011;23834;48.080;11.682;2023-04-29T10:28:40;0.83;;;0.83;;
38023;SDS011;23834;48.080;11.682;2023-04-29T10:31:07;0.93;;;0.93;;
38023;SDS011;23834;48.080;11.682;2023-04-29T10:33:33;0.97;;;0.97;;
38023;SDS011;23834;48.080;11.682;2023-04-29T10:35:59;0.80;;;0.70;;
38023;SDS011;23834;48.080;11.682;2023-04-29T10:40:56;1.17;;;0.80;;
38023;SDS011;23834;48.080;11.682;2023-04-29T10:43:22;0.90;;;0.90;;
38023;SDS011;23834;48.080;11.682;2023-04-29T10:45:48;0.70;;;0.70;;
38023;SDS011;23834;48.080;11.682;2023-04-29T10:48:13;0.83;;;0.83;;
38023;SDS011;23834;48.080;11.682;2023-04-29T10:53:06;0.83;;;0.83;;
38023;SDS011;23834;48.080;11.682;2023-04-29T10:55:34;1.23;;;0.80;;
38023;SDS011;23834;48.080;11.682;2023-04-29T10:58:00;0.93;;;0.93;;
38023;SDS011;23834;48.080;11.682;2023-04-29T11:00:27;0.70;;;0.70;;
38023;SDS011;23834;48.080;11.682;2023-04-29T11:02:53;0.80;;;0.80;;
38023;SDS011;23834;48.080;11.682;2023-04-29T11:05:28;0.80;;;0.80;;
38023;SDS011;23834;48.080;11.682;2023-04-29T11:08:07;1.10;;;1.00;;
38023;SDS011;23834;48.080;11.682;2023-04-29T11:10:35;0.70;;;0.70;;
38023;SDS011;23834;48.080;11.682;2023-04-29T11:13:19;0.70;;;0.70;;
38023;SDS011;23834;48.080;11.682;2023-04-29T11:15:45;0.80;;;0.73;;
38023;SDS011;23834;48.080;11.682;2023-04-29T11:18:10;0.83;;;0.83;;
38023;SDS011;23834;48.080;11.682;2023-04-29T11:21:10;1.00;;;0.70;;
38023;SDS011;23834;48.080;11.682;2023-04-29T11:23:22;0.93;;;0.93;;
38023;SDS011;23834;48.080;11.682;2023-04-29T11:25:48;0.83;;;0.83;;
38023;SDS011;23834;48.080;11.682;2023-04-29T11:28:13;0.70;;;0.70;;
38023;SDS011;23834;48.080;11.682;2023-04-29T11:30:39;1.53;;;1.03;;
38023;SDS011;23834;48.080;11.682;2023-04-29T11:33:05;0.80;;;0.77;;
38023;SDS011;23834;48.080;11.682;2023-04-29T11:35:32;0.80;;;0.80;;
38023;SDS011;23834;48.080;11.682;2023-04-29T11:37:58;1.00;;;1.00;;
38023;SDS011;23834;48.080;11.682;2023-04-29T11:40:23;0.80;;;0.80;;
38023;SDS011;23834;48.080;11.682;2023-04-29T11:42:49;0.80;;;0.80;;
38023;SDS011;23834;48.080;11.682;2023-04-29T11:45:18;0.83;;;0.83;;
38023;SDS011;23834;48.080;11.682;2023-04-29T11:47:44;0.80;;;0.80;;
38023;SDS011;23834;48.080;11.682;2023-04-29T11:50:10;0.90;;;0.90;;
38023;SDS011;23834;48.080;11.682;2023-04-29T11:52:36;0.97;;;0.90;;
38023;SDS011;23834;48.080;11.682;2023-04-29T11:55:05;0.80;;;0.80;;
38023;SDS011;23834;48.080;11.682;2023-04-29T11:57:32;0.90;;;0.90;;
38023;SDS011;23834;48.080;11.682;2023-04-29T11:59:57;0.90;;;0.90;;
38023;SDS011;23834;48.080;11.682;2023-04-29T12:02:32;0.97;;;0.90;;
38023;SDS011;23834;48.080;11.682;2023-04-29T12:04:57;1.30;;;1.13;;
38023;SDS011;23834;48.080;11.682;2023-04-29T12:07:24;0.83;;;0.83;;
38023;SDS011;23834;48.080;11.682;2023-04-29T12:09:50;0.90;;;0.90;;
38023;SDS011;23834;48.080;11.682;2023-04-29T12:12:15;1.00;;;1.00;;
38023;SDS011;23834;48.080;11.682;2023-04-29T12:14:40;1.00;;;1.00;;
38023;SDS011;23834;48.080;11.682;2023-04-29T12:17:06;1.00;;;1.00;;
38023;SDS011;23834;48.080;11.682;2023-04-29T12:19:32;0.90;;;0.90;;
38023;SDS011;23834;48.080;11.682;2023-04-29T12:22:01;0.90;;;0.90;;
38023;SDS011;23834;48.080;11.682;2023-04-29T12:24:27;1.10;;;1.10;;
38023;SDS011;23834;48.080;11.682;2023-04-29T12:26:53;0.77;;;0.77;;
38023;SDS011;23834;48.080;11.682;2023-04-29T12:29:22;1.03;;;0.97;;
38023;SDS011;23834;48.080;11.682;2023-04-29T12:31:48;1.37;;;1.00;;
38023;SDS011;23834;48.080;11.682;2023-04-29T12:34:13;0.90;;;0.90;;
38023;SDS011;23834;48.080;11.682;2023-04-29T12:36:41;1.10;;;1.10;;
38023;SDS011;23834;48.080;11.682;2023-04-29T12:39:07;0.93;;;0.93;;
38023;SDS011;23834;48.080;11.682;2023-04-29T12:41:40;1.00;;;1.00;;
38023;SDS011;23834;48.080;11.682;2023-04-29T12:44:06;0.80;;;0.80;;
38023;SDS011;23834;48.080;11.682;2023-04-29T12:46:38;0.90;;;0.90;;
38023;SDS011;23834;48.080;11.682;2023-04-29T12:49:04;0.77;;;0.77;;
38023;SDS011;23834;48.080;11.682;2023-04-29T12:51:30;1.00;;;1.00;;
38023;SDS011;23834;48.080;11.682;2023-04-29T12:53:56;1.10;;;1.10;;
38023;SDS011;23834;48.080;11.682;2023-04-29T12:56:21;0.83;;;0.83;;
38023;SDS011;23834;48.080;11.682;2023-04-29T12:58:47;0.80;;;0.80;;
38023;SDS011;23834;48.080;11.682;2023-04-29T13:01:12;1.30;;;0.90;;
38023;SDS011;23834;48.080;11.682;2023-04-29T13:03:37;1.43;;;1.00;;
38023;SDS011;23834;48.080;11.682;2023-04-29T13:06:04;0.97;;;0.97;;
38023;SDS011;23834;48.080;11.682;2023-04-29T13:08:29;0.80;;;0.80;;
38023;SDS011;23834;48.080;11.682;2023-04-29T13:10:54;0.80;;;0.80;;
38023;SDS011;23834;48.080;11.682;2023-04-29T13:13:20;1.00;;;1.00;;
38023;SDS011;23834;48.080;11.682;2023-04-29T13:15:45;0.70;;;0.70;;
38023;SDS011;23834;48.080;11.682;2023-04-29T13:18:10;1.10;;;1.00;;
38023;SDS011;23834;48.080;11.682;2023-04-29T13:20:35;2.20;;;1.00;;
38023;SDS011;23834;48.080;11.682;2023-04-29T13:23:01;0.93;;;0.93;;
38023;SDS011;23834;48.080;11.682;2023-04-29T13:25:26;1.20;;;1.10;;
38023;SDS011;23834;48.080;11.682;2023-04-29T13:27:51;0.87;;;0.87;;
38023;SDS011;23834;48.080;11.682;2023-04-29T13:30:16;1.03;;;0.93;;
38023;SDS011;23834;48.080;11.682;2023-04-29T13:32:41;1.00;;;1.00;;
38023;SDS011;23834;48.080;11.682;2023-04-29T13:35:08;0.73;;;0.73;;
38023;SDS011;23834;48.080;11.682;2023-04-29T13:37:33;1.00;;;0.90;;
38023;SDS011;23834;48.080;11.682;2023-04-29T13:39:58;1.07;;;1.07;;
38023;SDS011;23834;48.080;11.682;2023-04-29T13:42:23;0.80;;;0.80;;
38023;SDS011;23834;48.080;11.682;2023-04-29T13:44:49;1.33;;;0.97;;
38023;SDS011;23834;48.080;11.682;2023-04-29T13:47:14;0.80;;;0.80;;
38023;SDS011;23834;48.080;11.682;2023-04-29T13:49:40;0.87;;;0.87;;
38023;SDS011;23834;48.080;11.682;2023-04-29T13:52:06;1.90;;;0.90;;
38023;SDS011;23834;48.080;11.682;2023-04-29T13:54:31;0.80;;;0.80;;
38023;SDS011;23834;48.080;11.682;2023-04-29T13:56:56;1.10;;;1.00;;
38023;SDS011;23834;48.080;11.682;2023-04-29T13:59:22;0.87;;;0.87;;
38023;SDS011;23834;48.080;11.682;2023-04-29T14:01:47;0.80;;;0.80;;
38023;SDS011;23834;48.080;11.682;2023-04-29T14:04:14;0.83;;;0.83;;
38023;SDS011;23834;48.080;11.682;2023-04-29T14:06:41;0.90;;;0.90;;
38023;SDS011;23834;48.080;11.682;2023-04-29T14:09:06;0.90;;;0.90;;
38023;SDS011;23834;48.080;11.682;2023-04-29T14:11:31;0.77;;;0.77;;
38023;SDS011;23834;48.080;11.682;2023-04-29T14:14:00;0.97;;;0.97;;
38023;SDS011;23834;48.080;11.682;2023-04-29T14:16:25;0.80;;;0.80;;
38023;SDS011;23834;48.080;11.682;2023-04-29T14:18:51;0.90;;;0.90;;
38023;SDS011;23834;48.080;11.682;2023-04-29T14:21:17;0.80;;;0.80;;
38023;SDS011;23834;48.080;11.682;2023-04-29T14:23:42;0.77;;;0.77;;
38023;SDS011;23834;48.080;11.682;2023-04-29T14:26:07;0.70;;;0.70;;
38023;SDS011;23834;48.080;11.682;2023-04-29T14:28:32;0.70;;;0.70;;
38023;SDS011;23834;48.080;11.682;2023-04-29T14:30:57;1.00;;;1.00;;
38023;SDS011;23834;48.080;11.682;2023-04-29T14:33:22;0.70;;;0.70;;
38023;SDS011;23834;48.080;11.682;2023-04-29T14:35:48;0.90;;;0.90;;
38023;SDS011;23834;48.080;11.682;2023-04-29T14:38:13;0.97;;;0.90;;
38023;SDS011;23834;48.080;11.682;2023-04-29T14:40:38;0.77;;;0.77;;
38023;SDS011;23834;48.080;11.682;2023-04-29T14:43:03;0.93;;;0.93;;
38023;SDS011;23834;48.080;11.682;2023-04-29T14:45:29;1.10;;;0.97;;
38023;SDS011;23834;48.080;11.682;2023-04-29T14:47:54;0.87;;;0.87;;
38023;SDS011;23834;48.080;11.682;2023-04-29T14:50:19;0.73;;;0.73;;